Home > Products > Valid Products > MTR

000
SAUS41 KPHI 181856
MTRACY
METAR KACY 181854Z 34004KT 10SM OVC060 23/11 A3000 RMK AO2 SLP157
T02280111





000
SAUS41 KPHI 181855
MTR12N
METAR K12N 181854Z AUTO 00000KT 22/08 A3001 RMK AO1 SLP160 T02170078





000
SAUS41 KPHI 181757
MTRACY
METAR KACY 181754Z VRB03KT 10SM SCT055 23/09 A3000 RMK AO2 SLP158
T02330094 10239 20139 56005





000
SAUS41 KPHI 181755
MTR12N
METAR K12N 181754Z AUTO 00000KT 21/08 A3001 RMK AO1 SLP161 T02110083
10222 20083 57008





000
SAUS41 KPHI 181657
MTRACY
METAR KACY 181654Z 33006KT 10SM SCT055 23/10 A3001 RMK AO2 SLP161
T02280100





000
SAUS41 KPHI 181655
MTR12N
METAR K12N 181654Z AUTO 00000KT 21/09 A3002 RMK AO1 SLP164 T02110094





000
SAUS41 KPHI 181556
MTRACY
METAR KACY 181554Z 01008KT 10SM CLR 23/11 A3001 RMK AO2 SLP161
T02330106





000
SAUS41 KPHI 181555
MTR12N
METAR K12N 181554Z AUTO 00000KT 20/09 A3002 RMK AO1 SLP166 T02000094





000
SAUS41 KPHI 181457
MTRACY
METAR KACY 181454Z 33007KT 10SM CLR 22/12 A3002 RMK AO2 SLP164
T02170117 50004





000
SAUS41 KPHI 181455
MTR12N
METAR K12N 181454Z AUTO VRB03KT 18/10 A3003 RMK AO1 SLP169 T01830100
50002





000
SAUS41 KPHI 181357
MTRACY
METAR KACY 181354Z 30005KT 10SM CLR 20/11 A3003 RMK AO2 SLP166
T02000111





000
SAUS41 KPHI 181355
MTR12N
METAR K12N 181354Z AUTO 00000KT 15/11 A3004 RMK AO1 SLP171 T01500106





000
SAUS41 KPHI 181257
MTRACY
METAR KACY 181254Z 32005KT 10SM CLR 17/12 A3001 RMK AO2 SLP162
T01720122





000
SAUS41 KPHI 181255
MTR12N
METAR K12N 181254Z AUTO 00000KT 12/11 A3003 RMK AO1 SLP169 T01220106





000
SAUS41 KPHI 181155
MTR12N
METAR K12N 181154Z AUTO 00000KT 08/08 A3003 RMK AO1 SLP170 T00830078
10083 20061 51013





000
SAUS41 KPHI 181155
MTRACY
METAR KACY 181154Z 00000KT 10SM CLR 14/12 A3001 RMK AO2 SLP160
T01390117 10139 20100 51011 $





000
SAUS41 KPHI 181057
MTRACY
METAR KACY 181054Z 29003KT 10SM CLR 11/09 A3000 RMK AO2 SLP158
T01110094 $





000
SAUS41 KPHI 181055
MTR12N
METAR K12N 181054Z AUTO 00000KT 07/06 A3002 RMK AO1 SLP168 T00670061





000
SAUS41 KPHI 180957
MTRACY
METAR KACY 180954Z 00000KT 10SM CLR 10/09 A2999 RMK AO2 SLP153
T01000089 $





000
SAUS41 KPHI 180955
MTR12N
METAR K12N 180954Z AUTO 00000KT 06/06 A3000 RMK AO1 SLP160 T00610056





000
SAUS41 KPHI 180857
MTRACY
METAR KACY 180854Z AUTO 30004KT 10SM CLR 11/09 A2997 RMK AO2 SLP149
T01060089 55001 TSNO $





000
SAUS41 KPHI 180855
MTR12N
METAR K12N 180854Z AUTO 00000KT 06/06 A2999 RMK AO1 SLP156 T00610061
53002





000
SAUS41 KPHI 180757
MTRACY
METAR KACY 180754Z 30003KT 10SM CLR 10/09 A2996 RMK AO2 SLP145
T01000089 $





000
SAUS41 KPHI 180755
MTR12N
METAR K12N 180754Z AUTO 00000KT 07/06 A2998 RMK AO1 SLP151 T00670056





000
SAUS41 KPHI 180656
MTRACY
METAR KACY 180654Z 00000KT 10SM CLR 11/10 A2997 RMK AO2 SLP147
T01110100 $





000
SAUS41 KPHI 180655
MTR12N
METAR K12N 180654Z AUTO 00000KT 07/06 A2998 RMK AO1 SLP151 T00670061





000
SAUS41 KPHI 180555
MTR12N
METAR K12N 180554Z AUTO 00000KT 07/07 A2999 RMK AO1 SLP153 T00720067
10117 20072 58004





000
SAUS41 KPHI 180555
MTRACY
METAR KACY 180554Z 29003KT 10SM SCT060 12/11 A2997 RMK AO2 SLP150
T01170106 10161 20106 56004 $





000
SAUS41 KPHI 180457
MTRACY
METAR KACY 180454Z 00000KT 10SM CLR 11/10 A2998 RMK AO2 SLP151
T01110100 402390100 $





000
SAUS41 KPHI 180455
MTR12N
METAR K12N 180454Z AUTO 00000KT 08/07 A2999 RMK AO1 SLP156 T00780072
402110061





000
SAUS41 KPHI 180357
MTRACY
METAR KACY 180354Z 35003KT 10SM CLR 12/11 A2998 RMK AO2 SLP152
T01220111 $





000
SAUS41 KPHI 180355
MTR12N
METAR K12N 180354Z AUTO 00000KT 08/08 A3000 RMK AO1 SLP157 T00830078





000
SAUS41 KPHI 180255
MTRACY
METAR KACY 180254Z 00000KT 10SM CLR 12/11 A2999 RMK AO2 SLP154
T01220111 58000 $





000
SAUS41 KPHI 180255
MTR12N
METAR K12N 180254Z AUTO 00000KT 09/08 A3000 RMK AO1 SLP157 T00890083
50002





000
SAUS41 KPHI 180157
MTRACY
METAR KACY 180154Z 00000KT 10SM CLR 12/11 A2999 RMK AO2 SLP156
T01220111 $





000
SAUS41 KPHI 180155
MTR12N
METAR K12N 180154Z AUTO 00000KT 09/09 A3000 RMK AO1 SLP159 T00940089





000
SAUS41 KPHI 180056
MTRACY
METAR KACY 180054Z 00000KT 10SM CLR 13/11 A2999 RMK AO2 SLP156
T01280111 $





000
SAUS41 KPHI 180055
MTR12N
METAR K12N 180054Z AUTO 00000KT 11/09 A3000 RMK AO1 SLP161 T01060094





000
SAUS41 KPHI 172356
MTRACY
METAR KACY 172354Z 11003KT 10SM CLR 14/12 A2999 RMK AO2 SLP154
T01440122 10228 20144 51004 $





000
SAUS41 KPHI 172355
MTR12N
METAR K12N 172354Z AUTO 00000KT 12/10 A2999 RMK AO1 SLP159 T01170100
10211 20117 53004





000
SAUS41 KPHI 172257
MTRACY
METAR KACY 172254Z 17003KT 10SM CLR 19/12 A2998 RMK AO2 SLP153
T01890117 $





000
SAUS41 KPHI 172255
MTR12N
METAR K12N 172254Z AUTO 00000KT 14/09 A2998 RMK AO1 SLP156 T01440094





000
SAUS41 KPHI 172156
MTRACY
METAR KACY 172154Z 17007KT 10SM BKN060 20/12 A2998 RMK AO2 SLP152
T02000117





000
SAUS41 KPHI 172155
MTR12N
METAR K12N 172154Z AUTO 22005KT 19/07 A2998 RMK AO1 SLP152 T01940072





000
SAUS41 KPHI 172057
MTRACY
METAR KACY 172054Z 10008KT 10SM FEW039 21/12 A2998 RMK AO2 SLP150
T02060122 55008





000
SAUS41 KPHI 172055
MTR12N
METAR K12N 172054Z AUTO 00000KT 19/08 A2998 RMK AO1 SLP151 T01940078
55011





000
SAUS41 KPHI 171955
MTR12N
METAR K12N 171954Z AUTO 00000KT 21/06 A2998 RMK AO1 SLP150 T02060061





000
SAUS41 KPHI 171955
MTRACY
METAR KACY 171954Z 12007KT 10SM BKN034 BKN050 21/13 A2997 RMK AO2
SLP149 T02060128





000
SAUS41 KPHI 171857
MTRACY
METAR KACY 171854Z 12006KT 10SM FEW043 22/13 A2998 RMK AO2 SLP151
T02220128





000
SAUS41 KPHI 171855
MTR12N
METAR K12N 171854Z AUTO 00000KT 19/06 A2999 RMK AO1 SLP155 T01890061





000
SAUS41 KPHI 171757
MTRACY
METAR KACY 171754Z 36008KT 10SM OVC060 22/09 A3000 RMK AO2 SLP158
T02170089 10239 20133 58015





000
SAUS41 KPHI 171755
MTR12N
METAR K12N 171754Z AUTO 00000KT 19/06 A3001 RMK AO1 SLP161 T01940061
10194 20067 58022





000
SAUS41 KPHI 171657
MTRACY
METAR KACY 171654Z AUTO 00000KT 10SM BKN060 22/08 A3002 RMK AO2
SLP166 T02220083 TSNO





000
SAUS41 KPHI 171655
MTR12N
METAR K12N 171654Z AUTO 00000KT 19/06 A3004 RMK AO1 SLP172 T01890056





000
SAUS41 KPHI 171556
MTRACY
METAR KACY 171554Z 36005KT 10SM CLR 23/08 A3003 RMK AO2 SLP169
T02280083





000
SAUS41 KPHI 171555
MTR12N
METAR K12N 171554Z AUTO VRB03KT 19/07 A3006 RMK AO1 SLP177 T01890067





000
SAUS41 KPHI 171457
MTRACY
METAR KACY 171454Z 05004KT 10SM CLR 21/07 A3005 RMK AO2 SLP174
T02110072 58001





000
SAUS41 KPHI 171455
MTR12N
METAR K12N 171454Z AUTO 06003KT 18/08 A3008 RMK AO1 SLP184 T01780078
58000





000
SAUS41 KPHI 171355
MTRACY
METAR KACY 171354Z 06005KT 10SM CLR 20/12 A3006 RMK AO2 SLP177
T02000122





000
SAUS41 KPHI 171355
MTR12N
METAR K12N 171354Z AUTO 00000KT 15/09 A3009 RMK AO1 SLP188 T01500094





000
SAUS41 KPHI 171257
MTRACY
METAR KACY 171254Z 01006KT 10SM FEW065 17/13 A3006 RMK AO2 SLP178
T01720128





000
SAUS41 KPHI 171255
MTR12N
METAR K12N 171254Z AUTO 00000KT 11/11 A3008 RMK AO1 SLP187 T01060106





000
SAUS41 KPHI 171155
MTR12N
METAR K12N 171154Z AUTO 00000KT 07/07 A3008 RMK AO1 SLP189 7////
T00670067 10078 20061 53006





000
SAUS41 KPHI 171155
MTRACY
METAR KACY 171154Z 36004KT 10SM BKN065 13/11 A3005 RMK AO2 SLP175
T01330111 10133 20100 53009





000
SAUS41 KPHI 171055
MTRACY
METAR KACY 171054Z 00000KT 10SM CLR 10/09 A3004 RMK AO2 SLP171
T01000089





000
SAUS41 KPHI 171055
MTR12N
METAR K12N 171054Z AUTO 00000KT 06/06 A3007 RMK AO1 SLP184 T00610056





000
SAUS41 KPHI 170957
MTRACY
METAR KACY 170954Z 33003KT 10SM CLR 10/09 A3003 RMK AO2 SLP167
T01000089





000
SAUS41 KPHI 170955
MTR12N
METAR K12N 170954Z AUTO 00000KT 06/06 A3007 RMK AO1 SLP181 T00610061





000
SAUS41 KPHI 170855
MTRACY
METAR KACY 170854Z 32004KT 10SM CLR 11/09 A3002 RMK AO2 SLP166
T01060094 55002





000
SAUS41 KPHI 170855
MTR12N
METAR K12N 170854Z AUTO 00000KT 06/06 A3006 RMK AO1 SLP179 T00610061
55001





000
SAUS41 KPHI 170755
MTRACY
METAR KACY 170754Z 32003KT 10SM CLR 11/10 A3002 RMK AO2 SLP164
T01110100





000
SAUS41 KPHI 170755
MTR12N
METAR K12N 170754Z AUTO 00000KT 07/07 A3005 RMK AO1 SLP175 T00720067





000
SAUS41 KPHI 170655
MTR12N
METAR K12N 170654Z AUTO 00000KT 08/07 A3006 RMK AO1 SLP178 T00780072





000
SAUS41 KPHI 170655
MTRACY
METAR KACY 170654Z 35005KT 10SM CLR 12/11 A3002 RMK AO2 SLP164
T01170106





000
SAUS41 KPHI 170555
MTR12N
METAR K12N 170554Z AUTO 00000KT 08/07 A3006 RMK AO1 SLP179 T00780072
10122 20078 53003





000
SAUS41 KPHI 170555
MTRACY
METAR KACY 170554Z 33003KT 10SM CLR 13/12 A3003 RMK AO2 SLP168
T01280117 10167 20128 53002





000
SAUS41 KPHI 170456
MTRACY
METAR KACY 170454Z 01005KT 10SM CLR 13/12 A3002 RMK AO2 SLP165
T01330122 402440122





000
SAUS41 KPHI 170455
MTR12N
METAR K12N 170454Z AUTO 00000KT 08/08 A3005 RMK AO1 SLP177 T00830078
402110083





000
SAUS41 KPHI 170355
MTRACY
METAR KACY 170354Z 33005KT 9SM SCT065 13/13 A3002 RMK AO2 SLP166
T01330128





000
SAUS41 KPHI 170355
MTR12N
METAR K12N 170354Z AUTO 00000KT 09/08 A3005 RMK AO1 SLP176 T00890083





000
SAUS41 KPHI 170257
MTRACY
METAR KACY 170254Z AUTO 00000KT 10SM CLR 16/14 A3002 RMK AO2 SLP165
T01560144 51009 TSNO





000
SAUS41 KPHI 170255
MTR12N
METAR K12N 170254Z AUTO 00000KT 09/09 A3005 RMK AO1 SLP177 T00940089
51009





000
SAUS41 KPHI 170157
MTRACY
METAR KACY 170154Z AUTO 00000KT 10SM FEW055 16/14 A3002 RMK AO2
SLP164 T01560144 TSNO





000
SAUS41 KPHI 170155
MTR12N
METAR K12N 170154Z AUTO 00000KT 11/10 A3005 RMK AO1 SLP174 T01060100





000
SAUS41 KPHI 170056
MTRACY
METAR KACY 170054Z 00000KT 10SM SCT050 OVC070 16/14 A3001 RMK AO2
SLP160 T01610144





000
SAUS41 KPHI 170055
MTR12N
METAR K12N 170054Z AUTO 00000KT 11/11 A3004 RMK AO1 SLP172 T01110106





000
SAUS41 KPHI 162357
MTRACY
METAR KACY 162354Z 08003KT 10SM FEW047 17/13 A3000 RMK AO2 SLP157
T01670133 10244 20167 53012





000
SAUS41 KPHI 162355
MTR12N
METAR K12N 162354Z AUTO 00000KT 12/11 A3003 RMK AO1 SLP168 T01220106
10200 20117 53008





000
SAUS41 KPHI 162256
MTRACY
METAR KACY 162254Z 03004KT 10SM BKN075 19/14 A2998 RMK AO2 SLP152
T01940144





000
SAUS41 KPHI 162255
MTR12N
METAR K12N 162254Z AUTO 00000KT 14/12 A3001 RMK AO1 SLP160 T01440117





000
SAUS41 KPHI 162155
MTRACY
METAR KACY 162154Z 01005KT 10SM BKN075 22/13 A2997 RMK AO2 SLP149
T02170133





000
SAUS41 KPHI 162155
MTR12N
METAR K12N 162154Z AUTO 35005KT 19/09 A3000 RMK AO1 SLP159 T01890094





000
SAUS41 KPHI 162057
MTRACY
METAR KACY 162054Z 34011KT 10SM SCT038 23/14 A2996 RMK AO2 SLP145
T02330144 53001





000
SAUS41 KPHI 162055
MTR12N
METAR K12N 162054Z AUTO VRB04KT 18/09 A3000 RMK AO1 SLP158 T01830094
53004





000
SAUS41 KPHI 161955
MTR12N
METAR K12N 161954Z AUTO VRB03KT 19/11 A2999 RMK AO1 SLP155 T01940111





000
SAUS41 KPHI 161955
MTRACY
METAR KACY 161954Z 36011KT 10SM FEW043 SCT050 23/13 A2996 RMK AO2
SLP143 T02280133





000
SAUS41 KPHI 161855
MTRACY
METAR KACY 161854Z 35013KT 10SM BKN045 BKN055 23/13 A2996 RMK AO2
SLP145 T02280128





000
SAUS41 KPHI 161855
MTR12N
METAR K12N 161854Z AUTO VRB03KT 19/12 A2999 RMK AO1 SLP155 T01890117





000
SAUS41 KPHI 161755
MTRACY
METAR KACY 161754Z 33014KT 10SM CLR 24/12 A2996 RMK AO2 SLP144 60000
T02390122 10244 20183 56010





000
SAUS41 KPHI 161755
MTR12N
METAR K12N 161754Z AUTO 04003KT 20/11 A2999 RMK AO1 SLP153 6////
T02000111 10211 20117





000
SAUS41 KPHI 161657
MTRACY
METAR KACY 161654Z 35011KT 10SM FEW029 23/15 A2996 RMK AO2 SLP146
T02330150





000
SAUS41 KPHI 161656
MTR12N
METAR K12N 161654Z AUTO VRB05KT 20/12 A3000 RMK AO1 SLP158 T02000122





000
SAUS41 KPHI 161557
MTRACY
METAR KACY 161554Z 34013KT 10SM SCT021 22/16 A2998 RMK AO2 SLP150
T02220161





000
SAUS41 KPHI 161555
MTR12N
METAR K12N 161554Z AUTO 02003KT 19/13 A3001 RMK AO1 SLP162 T01890128
$





000
SAUS41 KPHI 161544
MTRACY
SPECI KACY 161540Z 32007KT 10SM SCT020 22/16 A2998 RMK AO2 T02170161





000
SAUS41 KPHI 161457
MTRACY
METAR KACY 161454Z 32011KT 10SM SCT013 BKN021 BKN028 21/18 A2999 RMK
AO2 RAB29E44 SLP154 P0000 60000 T02060183 50001





000
SAUS41 KPHI 161455
MTR12N
METAR K12N 161454Z AUTO VRB05KT 17/13 A3003 RMK AO1 SLP169 60001
T01670133 51003 $





000
SAUS41 KPHI 161453
MTRACY
SPECI KACY 161450Z 31009KT 10SM FEW011 SCT021 BKN035 19/18 A2999 RMK
AO2 RAB29E44 P0000





000
SAUS41 KPHI 161403
MTRACY
SPECI KACY 161401Z 22008KT 10SM SCT009 BKN016 OVC043 19/18 A2999 RMK
AO2 T01940178





000
SAUS41 KPHI 161355
MTRACY
METAR KACY 161354Z 22006KT 10SM SCT009 BKN012 OVC018 19/18 A2999 RMK
AO2 SLP154 T01940178





000
SAUS41 KPHI 161355
MTR12N
METAR K12N 161354Z AUTO 00000KT 14/13 A3003 RMK AO1 SLP169 T01440133
$





000
SAUS41 KPHI 161338
MTRACY
SPECI KACY 161335Z 21008KT 10SM BKN009 BKN014 OVC021 19/18 A2999 RMK
AO2 CIG 007V012 T01890178





000
SAUS41 KPHI 161324
MTRACY
SPECI KACY 161321Z 19006KT 10SM FEW009 BKN022 OVC044 19/18 A2999 RMK
AO2 T01890178





000
SAUS41 KPHI 161312
MTRACY
SPECI KACY 161309Z 19007KT 10SM SCT025 BKN031 OVC044 19/18 A2998 RMK
AO2 T01890178





000
SAUS41 KPHI 161257
MTRACY
METAR KACY 161254Z 17008KT 10SM FEW017 BKN023 OVC032 19/17 A2998 RMK
AO2 RAB10E28 SLP152 P0000 T01890172





000
SAUS41 KPHI 161255
MTR12N
METAR K12N 161254Z AUTO VRB03KT 13/12 A3003 RMK AO1 SLP170 P0001
T01280122 $





000
SAUS41 KPHI 161155
MTR12N
METAR K12N 161154Z AUTO VRB03KT 12/12 A3002 RMK AO1 SLP167 P0025
60034 70034 T01170117 10117 20094 53001 $





000
SAUS41 KPHI 161155
MTRACY
METAR KACY 161154Z 20003KT 10SM OVC023 19/16 A3000 RMK AO2 SLP157
T01890156 10189 20122 56008





000
SAUS41 KPHI 161118
MTRACY
SPECI KACY 161115Z 15005KT 10SM BKN025 OVC033 18/16 A2999 RMK AO2
T01830156





000
SAUS41 KPHI 161055
MTR12N
METAR K12N 161054Z AUTO 00000KT 11/11 A3003 RMK AO1 SLP169 P0009
T01110106 $





000
SAUS41 KPHI 161055
MTRACY
METAR KACY 161054Z 16005KT 10SM SCT027 OVC033 18/15 A3000 RMK AO2
SLP158 T01780150





000
SAUS41 KPHI 160955
MTR12N
METAR K12N 160954Z AUTO 00000KT 11/11 A3000 RMK AO1 SLP157 T01110106
$





000
SAUS41 KPHI 160955
MTRACY
METAR KACY 160954Z 15004KT 10SM OVC029 17/15 A3000 RMK AO2 SLP158
T01670150





000
SAUS41 KPHI 160930
MTRACY
SPECI KACY 160929Z 12004KT 10SM BKN029 14/13 A3001 RMK AO2 T01390128





000
SAUS41 KPHI 160855
MTR12N
METAR K12N 160854Z AUTO 00000KT 11/10 A3002 RMK AO1 SLP165 T01060100
58011 $





000
SAUS41 KPHI 160855
MTRACY
METAR KACY 160854Z 00000KT 10SM BKN032 13/12 A3002 RMK AO2 SLP165
T01280122 58016





000
SAUS41 KPHI 160756
MTRACY
METAR KACY 160754Z 00000KT 10SM FEW042 13/12 A3004 RMK AO2 SLP171
T01330122





000
SAUS41 KPHI 160755
MTR12N
METAR K12N 160754Z AUTO 00000KT 10/09 A3004 RMK AO1 SLP171 T01000094
$





000
SAUS41 KPHI 160657
MTRACY
METAR KACY 160654Z AUTO 00000KT 10SM BKN050 13/12 A3006 RMK AO2
SLP177 T01280117 TSNO





000
SAUS41 KPHI 160655
MTR12N
METAR K12N 160654Z AUTO 00000KT 11/10 A3005 RMK AO1 SLP175 T01060100
$





000
SAUS41 KPHI 160557
MTRACY
METAR KACY 160554Z AUTO 00000KT 10SM OVC044 13/12 A3007 RMK AO2
SLP181 T01280117 10161 20117 58009 TSNO





000
SAUS41 KPHI 160555
MTR12N
METAR K12N 160554Z AUTO 00000KT 10/10 A3006 RMK AO1 SLP177 T01000100
10133 20094 56014 $





000
SAUS41 KPHI 160456
MTRACY
METAR KACY 160454Z AUTO 00000KT 10SM CLR 12/11 A3008 RMK AO2 SLP187
T01220111 402220083 TSNO





000
SAUS41 KPHI 160456
MTR12N
METAR K12N 160454Z AUTO 00000KT 09/09 A3007 RMK AO1 SLP182 T00940089
402060061 $





000
SAUS41 KPHI 160357
MTRACY
METAR KACY 160354Z AUTO 00000KT 10SM CLR 12/11 A3010 RMK AO2 SLP191
T01170106 TSNO





000
SAUS41 KPHI 160355
MTR12N
METAR K12N 160354Z AUTO 00000KT 09/09 A3008 RMK AO1 SLP184 T00940089
$





000
SAUS41 KPHI 160255
MTRACY
METAR KACY 160254Z 00000KT 10SM CLR 13/11 A3010 RMK AO2 SLP190
T01280111 58011





000
SAUS41 KPHI 160255
MTR12N
METAR K12N 160254Z AUTO 00000KT 10/09 A3010 RMK AO1 SLP191 T01000094
56005 $





000
SAUS41 KPHI 160157
MTRACY
METAR KACY 160154Z 15003KT 10SM CLR 13/12 A3011 RMK AO2 SLP194
T01330117





000
SAUS41 KPHI 160155
MTR12N
METAR K12N 160154Z AUTO 00000KT 11/09 A3010 RMK AO1 SLP194 T01060094
$





000
SAUS41 KPHI 160057
MTRACY
METAR KACY 160054Z 00000KT 10SM CLR 13/12 A3012 RMK AO2 SLP199
T01330122





000
SAUS41 KPHI 160055
MTR12N
METAR K12N 160054Z AUTO 00000KT 13/11 A3010 RMK AO1 SLP195 T01280106
$





000
SAUS41 KPHI 152356
MTRACY
METAR KACY 152354Z 12003KT 10SM CLR 14/12 A3013 RMK AO2 SLP202
T01440122 10211 20144 56006





000
SAUS41 KPHI 152355
MTR12N
METAR K12N 152354Z AUTO 00000KT 13/10 A3011 RMK AO1 SLP199 T01330100
10206 20133 56005 $





000
SAUS41 KPHI 152257
MTRACY
METAR KACY 152254Z 12005KT 10SM CLR 17/13 A3013 RMK AO2 SLP202
T01670128





000
SAUS41 KPHI 152255
MTR12N
METAR K12N 152254Z AUTO 00000KT 16/11 A3012 RMK AO1 SLP200 T01560106
$





000
SAUS41 KPHI 152155
MTR12N
METAR K12N 152154Z AUTO 22003KT 19/08 A3012 RMK AO1 SLP199 T01890083
$





000
SAUS41 KPHI 152155
MTRACY
METAR KACY 152154Z 12005KT 10SM BKN045 19/13 A3014 RMK AO2 SLP204
T01890128





000
SAUS41 KPHI 152057
MTRACY
METAR KACY 152054Z 14006KT 10SM CLR 21/13 A3015 RMK AO2 SLP207
T02060128 55011





000
SAUS41 KPHI 152055
MTR12N
METAR K12N 152054Z AUTO 22005KT 19/07 A3013 RMK AO1 SLP202 T01940072
56016 $





000
SAUS41 KPHI 151955
MTRACY
METAR KACY 151954Z 11006KT 10SM FEW048 19/12 A3014 RMK AO2 SLP207
T01940122





000
SAUS41 KPHI 151955
MTR12N
METAR K12N 151954Z AUTO VRB03KT 20/07 A3013 RMK AO1 SLP203 T02000072
$





    US Dept of Commerce
    National Oceanic and Atmospheric Administration
    National Weather Service
    1325 East West Highway
    Silver Spring, MD 20910
    Page Author: NWS Internet Services Team
Disclaimer
Information Quality
Credits
Glossary
Privacy Policy
Freedom of Information Act (FOIA)
About Us
Career Opportunities